Time;durP1;ratioP1;P1;durP2;ratioP2;P2;SDS_P1;SDS_P2;PMS_P1;PMS_P2;Temp;Humidity;BMP_temperature;BMP_pressure;BME280_temperature;BME280_humidity;BME280_pressure;Samples;Min_cycle;Max_cycle;Signal;HPM_P1;HPM_P2
2022/12/17 13:08:19;;;;;;;58.93;40.80;;;-2.40;99.90;;;;;;4994390;28;20465;-76
2022/12/17 13:10:49;;;;;;;56.33;38.80;;;-2.40;99.90;;;;;;4996201;28;20421;-76
2022/12/17 13:13:33;;;;;;;60.03;42.83;;;-2.40;99.90;;;;;;4995659;28;20443;-76
2022/12/17 13:16:17;;;;;;;61.57;43.63;;;-2.40;99.90;;;;;;4995577;28;20476;-76
2022/12/17 13:18:45;;;;;;;70.10;42.90;;;-2.40;99.90;;;;;;4995469;28;20437;-76
2022/12/17 13:21:26;;;;;;;69.97;44.23;;;-2.40;99.90;;;;;;4994006;28;20508;-76
2022/12/17 13:23:55;;;;;;;68.00;42.40;;;-2.40;99.90;;;;;;4995713;28;20433;-77
2022/12/17 13:26:42;;;;;;;64.63;41.97;;;-2.40;99.90;;;;;;4995224;28;20448;-76
2022/12/17 13:29:23;;;;;;;61.83;42.87;;;-2.40;99.90;;;;;;4993911;28;20857;-76
2022/12/17 13:32:06;;;;;;;65.80;41.67;;;-2.40;99.90;;;;;;4995646;28;20421;-76
2022/12/17 13:34:46;;;;;;;66.07;41.40;;;-2.40;99.90;;;;;;4989976;28;20474;-77
2022/12/17 13:37:26;;;;;;;71.80;42.33;;;-2.40;99.90;;;;;;4995074;28;20502;-76
2022/12/17 13:40:09;;;;;;;64.00;43.13;;;-2.40;99.90;;;;;;4993759;28;20482;-76
2022/12/17 13:42:37;;;;;;;81.90;47.90;;;-2.40;99.90;;;;;;4993639;28;20445;-76
2022/12/17 13:45:07;;;;;;;79.30;48.07;;;-2.30;99.90;;;;;;4993573;28;20981;-76
2022/12/17 13:47:37;;;;;;;93.83;48.73;;;-2.30;99.90;;;;;;4994954;28;20820;-76
2022/12/17 13:50:19;;;;;;;75.20;46.90;;;-2.30;99.90;;;;;;4994067;28;20771;-76
2022/12/17 13:53:11;;;;;;;77.00;47.03;;;-2.30;99.90;;;;;;4995000;28;20472;-76
2022/12/17 13:55:41;;;;;;;73.80;46.60;;;-2.30;99.90;;;;;;4994666;28;20965;-76
2022/12/17 13:58:21;;;;;;;79.50;47.27;;;-2.30;99.90;;;;;;4993337;28;20458;-76
2022/12/17 14:00:49;;;;;;;84.87;48.90;;;-2.30;99.90;;;;;;4994761;28;20428;-76
2022/12/17 14:03:21;;;;;;;73.47;45.67;;;-2.30;99.90;;;;;;4994568;28;20873;-76
2022/12/17 14:06:11;;;;;;;82.67;48.70;;;-2.30;99.90;;;;;;4994909;28;20440;-76
2022/12/17 14:08:40;;;;;;;83.37;51.33;;;-2.30;99.90;;;;;;4993143;28;20504;-76
2022/12/17 14:13:57;;;;;;;83.60;51.70;;;-2.30;99.90;;;;;;4994536;28;20475;-76
2022/12/17 14:16:25;;;;;;;79.40;48.77;;;-2.30;99.90;;;;;;4994343;28;20902;-76
2022/12/17 14:18:56;;;;;;;83.10;51.70;;;-2.30;99.90;;;;;;4993006;28;20876;-76
2022/12/17 14:21:26;;;;;;;89.10;51.50;;;-2.20;99.90;;;;;;4993061;28;20448;-76
2022/12/17 14:23:55;;;;;;;79.47;49.93;;;-2.20;99.90;;;;;;4992819;28;20460;-76
2022/12/17 14:26:25;;;;;;;78.23;50.13;;;-2.20;99.90;;;;;;4992963;28;20937;-76
2022/12/17 14:28:55;;;;;;;79.90;47.53;;;-2.20;99.90;;;;;;4992794;28;20495;-76
2022/12/17 14:31:27;;;;;;;72.23;43.97;;;-2.20;99.90;;;;;;4992965;28;20479;-76
2022/12/17 14:34:06;;;;;;;76.60;46.27;;;-2.30;99.90;;;;;;4992990;28;20806;-77
2022/12/17 14:36:36;;;;;;;82.13;51.50;;;-2.30;99.90;;;;;;4993042;28;20925;-76
2022/12/17 14:39:14;;;;;;;58.13;37.40;;;-2.30;99.90;;;;;;4992810;28;20447;-76
2022/12/17 14:44:31;;;;;;;61.43;39.03;;;-2.30;99.90;;;;;;4992991;28;21001;-76
2022/12/17 14:47:12;;;;;;;65.37;39.33;;;-2.30;99.90;;;;;;4994228;28;20437;-76
2022/12/17 14:49:53;;;;;;;64.97;41.23;;;-2.30;99.90;;;;;;4992657;28;20925;-79
2022/12/17 14:52:43;;;;;;;64.77;39.53;;;-2.30;99.90;;;;;;4994233;28;20483;-76
2022/12/17 14:55:36;;;;;;;58.73;37.73;;;-2.20;99.90;;;;;;4991949;28;20508;-77
2022/12/17 14:58:24;;;;;;;66.60;41.30;;;-2.30;99.90;;;;;;4992617;28;20536;-76
2022/12/17 15:00:56;;;;;;;60.80;39.23;;;-2.30;99.90;;;;;;4994149;28;20433;-76
2022/12/17 15:03:27;;;;;;;63.80;40.40;;;-2.30;99.90;;;;;;4994676;28;20925;-76
2022/12/17 15:05:58;;;;;;;62.70;37.07;;;-2.30;99.90;;;;;;4993038;28;20472;-76
2022/12/17 15:08:30;;;;;;;58.70;38.13;;;-2.30;99.90;;;;;;4992571;28;20468;-76
2022/12/17 15:11:01;;;;;;;54.13;38.00;;;-2.30;99.90;;;;;;4992552;28;20447;-76
2022/12/17 15:13:31;;;;;;;59.10;37.57;;;-2.30;99.90;;;;;;4996700;28;20996;-76
2022/12/17 15:15:59;;;;;;;62.43;37.70;;;-2.30;99.90;;;;;;4996234;28;20506;-75
2022/12/17 15:18:28;;;;;;;57.17;37.20;;;-2.30;99.90;;;;;;4996374;28;20468;-76
2022/12/17 15:20:56;;;;;;;56.63;37.33;;;-2.30;99.90;;;;;;4996289;28;20514;-76
2022/12/17 15:23:25;;;;;;;57.20;37.03;;;-2.30;99.90;;;;;;4996256;28;20464;-76
2022/12/17 15:25:54;;;;;;;63.10;42.20;;;-2.30;99.90;;;;;;4996164;28;20541;-76
2022/12/17 15:28:22;;;;;;;61.23;38.13;;;-2.30;99.90;;;;;;4996143;28;20523;-76
2022/12/17 15:30:55;;;;;;;67.77;39.60;;;-2.30;99.90;;;;;;4997647;28;20882;-76
2022/12/17 15:33:23;;;;;;;65.17;38.60;;;-2.30;99.90;;;;;;4996040;28;20456;-76
2022/12/17 15:35:51;;;;;;;62.43;38.03;;;-2.30;99.90;;;;;;4995720;28;20460;-76
2022/12/17 15:38:19;;;;;;;58.80;38.40;;;-2.40;99.90;;;;;;4996000;28;21009;-76
2022/12/17 15:40:47;;;;;;;58.93;38.07;;;-2.40;99.90;;;;;;4995917;28;20789;-76
2022/12/17 15:43:17;;;;;;;57.80;38.53;;;-2.40;99.90;;;;;;4996002;28;20459;-76
2022/12/17 15:45:47;;;;;;;57.73;37.33;;;-2.40;99.90;;;;;;4997025;28;20468;-76
2022/12/17 15:48:18;;;;;;;61.50;39.90;;;-2.40;99.90;;;;;;4997316;28;20464;-76
2022/12/17 15:50:47;;;;;;;58.77;36.47;;;-2.40;99.90;;;;;;4997624;28;20446;-76
2022/12/17 15:53:16;;;;;;;54.70;34.90;;;-2.40;99.90;;;;;;4995673;28;20464;-76
2022/12/17 15:55:44;;;;;;;51.67;37.00;;;-2.40;99.90;;;;;;4996691;28;20464;-76
2022/12/17 15:58:12;;;;;;;56.60;36.50;;;-2.40;99.90;;;;;;4995671;28;20815;-76
2022/12/17 16:00:41;;;;;;;58.10;36.20;;;-2.40;99.90;;;;;;4995617;28;21151;-77
2022/12/17 16:03:09;;;;;;;51.20;34.33;;;-2.40;99.90;;;;;;4995557;28;20455;-75
2022/12/17 16:05:38;;;;;;;56.17;33.90;;;-2.50;99.90;;;;;;4994439;28;20464;-77
2022/12/17 16:08:06;;;;;;;61.90;41.13;;;-2.50;99.90;;;;;;4996941;28;20447;-76
2022/12/17 16:10:35;;;;;;;48.00;34.00;;;-2.50;99.90;;;;;;4996649;28;20523;-76
2022/12/17 16:13:03;;;;;;;46.20;32.63;;;-2.50;99.90;;;;;;4995322;28;20457;-77
2022/12/17 16:15:31;;;;;;;50.90;34.20;;;-2.50;99.90;;;;;;4995260;28;20535;-77
2022/12/17 16:18:00;;;;;;;47.17;33.27;;;-2.50;99.90;;;;;;4995196;28;20507;-77
2022/12/17 16:20:28;;;;;;;52.90;34.67;;;-2.50;99.90;;;;;;4996550;28;20440;-77
2022/12/17 16:22:57;;;;;;;54.87;33.90;;;-2.50;99.90;;;;;;4994917;28;20460;-77
2022/12/17 16:25:25;;;;;;;51.77;32.53;;;-2.50;99.90;;;;;;4995418;28;20965;-77
2022/12/17 16:27:53;;;;;;;50.73;34.20;;;-2.50;99.90;;;;;;4995098;28;20556;-77
2022/12/17 16:30:21;;;;;;;51.37;34.47;;;-2.50;99.90;;;;;;4994930;28;20480;-77
2022/12/17 16:32:49;;;;;;;49.77;34.40;;;-2.50;99.90;;;;;;4996443;28;20449;-77
2022/12/17 16:35:18;;;;;;;48.90;33.70;;;-2.50;99.90;;;;;;4996683;28;20884;-77
2022/12/17 16:37:46;;;;;;;53.70;35.93;;;-2.50;99.90;;;;;;4994858;28;20444;-77
2022/12/17 16:40:15;;;;;;;51.47;36.03;;;-2.50;99.90;;;;;;4994756;28;20454;-77
2022/12/17 16:42:43;;;;;;;56.87;39.13;;;-2.50;99.90;;;;;;4996430;28;20996;-77
2022/12/17 16:45:12;;;;;;;51.30;34.80;;;-2.50;99.90;;;;;;4994612;28;20530;-77
2022/12/17 16:47:40;;;;;;;51.90;35.00;;;-2.50;99.90;;;;;;4994657;28;20445;-76
2022/12/17 16:50:08;;;;;;;48.63;35.13;;;-2.50;99.90;;;;;;4995800;28;20469;-77
2022/12/17 16:52:36;;;;;;;55.17;39.47;;;-2.50;99.90;;;;;;4994652;28;20949;-76
2022/12/17 16:55:05;;;;;;;58.80;37.60;;;-2.50;99.90;;;;;;4993647;28;20485;-75
2022/12/17 16:57:35;;;;;;;44.90;33.80;;;-2.50;99.90;;;;;;4994730;28;20455;-77
2022/12/17 17:00:03;;;;;;;54.10;37.37;;;-2.60;99.90;;;;;;4994507;28;20451;-77
2022/12/17 17:02:32;;;;;;;55.87;35.83;;;-2.60;99.90;;;;;;4994376;28;20445;-77
2022/12/17 17:05:00;;;;;;;57.47;39.67;;;-2.60;99.90;;;;;;4994234;28;20469;-76
2022/12/17 17:07:28;;;;;;;54.40;37.70;;;-2.60;99.90;;;;;;4994417;28;20457;-77
2022/12/17 17:09:57;;;;;;;59.97;38.00;;;-2.60;99.90;;;;;;4995502;28;20478;-76
2022/12/17 17:12:25;;;;;;;62.10;39.13;;;-2.60;99.90;;;;;;4995737;28;20839;-76
2022/12/17 17:14:55;;;;;;;53.27;36.40;;;-2.70;99.90;;;;;;4995660;28;20476;-77
2022/12/17 17:17:24;;;;;;;60.20;39.17;;;-2.60;99.90;;;;;;4994173;28;20445;-76
2022/12/17 17:20:13;;;;;;;59.80;40.07;;;-2.70;99.90;;;;;;4995404;28;20480;-78
2022/12/17 17:22:41;;;;;;;55.50;40.20;;;-2.70;99.90;;;;;;4994107;28;20968;-76
2022/12/17 17:25:09;;;;;;;66.97;42.93;;;-2.70;99.90;;;;;;4993956;28;20468;-76
2022/12/17 17:27:37;;;;;;;52.53;38.43;;;-2.70;99.90;;;;;;4993913;28;20444;-75
2022/12/17 17:30:08;;;;;;;60.07;37.87;;;-2.70;99.90;;;;;;4993845;28;20893;-76
2022/12/17 17:32:36;;;;;;;66.03;42.90;;;-2.70;99.90;;;;;;4993927;28;20445;-76
2022/12/17 17:35:05;;;;;;;65.60;39.60;;;-2.80;99.90;;;;;;4995036;28;20495;-76
2022/12/17 17:37:33;;;;;;;56.83;41.13;;;-2.80;99.90;;;;;;4994962;28;20547;-76
2022/12/17 17:40:01;;;;;;;53.97;38.63;;;-2.90;99.90;;;;;;4993752;28;20520;-76
2022/12/17 17:42:30;;;;;;;65.23;43.60;;;-2.90;99.90;;;;;;4993769;28;20445;-76
2022/12/17 17:44:58;;;;;;;58.93;41.70;;;-2.90;99.90;;;;;;4991886;28;20485;-75
2022/12/17 17:47:28;;;;;;;66.50;40.97;;;-2.90;99.90;;;;;;4995114;28;20441;-75
2022/12/17 17:49:57;;;;;;;61.47;39.97;;;-2.90;99.90;;;;;;4995015;28;20461;-76
2022/12/17 17:52:25;;;;;;;62.33;39.30;;;-3.00;99.90;;;;;;4993481;28;20449;-76
2022/12/17 17:54:53;;;;;;;65.93;43.17;;;-3.00;99.90;;;;;;4994999;28;20468;-76
2022/12/17 17:57:21;;;;;;;59.13;40.57;;;-3.10;99.90;;;;;;4993640;28;20862;-76
2022/12/17 17:59:51;;;;;;;61.90;39.93;;;-3.10;99.90;;;;;;4993644;28;20449;-77
2022/12/17 18:02:42;;;;;;;57.47;40.37;;;-3.10;99.90;;;;;;4994549;28;20450;-76
2022/12/17 18:05:16;;;;;;;59.60;38.83;;;-3.20;99.90;;;;;;4995173;28;20504;-76
2022/12/17 18:07:44;;;;;;;62.67;37.40;;;-3.20;99.90;;;;;;4994170;28;20448;-76
2022/12/17 18:10:27;;;;;;;58.73;42.57;;;-3.20;99.90;;;;;;4994203;28;21003;-76
2022/12/17 18:16:04;;;;;;;59.53;39.93;;;-3.30;99.90;;;;;;4993841;28;20476;-76
2022/12/17 18:18:45;;;;;;;58.30;39.60;;;-3.30;99.90;;;;;;4994052;28;20969;-76
2022/12/17 18:21:18;;;;;;;63.27;40.10;;;-3.40;99.90;;;;;;4995144;28;20916;-77
2022/12/17 18:23:56;;;;;;;52.77;37.63;;;-2.70;99.90;;;;;;4995035;28;20451;-75
2022/12/17 18:26:43;;;;;;;60.60;39.70;;;-3.40;99.90;;;;;;4994846;28;20433;-77
2022/12/17 18:29:20;;;;;;;66.00;41.37;;;-3.50;99.90;;;;;;4994338;28;20457;-77
2022/12/17 18:31:48;;;;;;;59.80;40.43;;;-3.50;99.90;;;;;;4993573;28;20445;-77
2022/12/17 18:34:22;;;;;;;49.30;36.77;;;-3.50;99.90;;;;;;4992330;28;21017;-77
2022/12/17 18:36:50;;;;;;;55.90;38.27;;;-3.60;99.90;;;;;;4993277;28;20860;-76
2022/12/17 18:39:21;;;;;;;50.77;35.40;;;-3.60;99.90;;;;;;4994914;28;20449;-76
2022/12/17 18:44:37;;;;;;;55.20;37.80;;;-3.60;99.90;;;;;;4995073;28;20564;-76
2022/12/17 18:47:07;;;;;;;51.67;36.50;;;-3.60;99.90;;;;;;4995291;28;20437;-76
2022/12/17 18:49:37;;;;;;;50.10;36.37;;;-3.70;99.90;;;;;;4995320;28;20522;-76
2022/12/17 18:52:06;;;;;;;47.07;29.93;;;-3.70;99.90;;;;;;4992945;28;20445;-76
2022/12/17 18:54:41;;;;;;;52.30;38.37;;;-3.70;99.90;;;;;;4994718;28;20511;-76
2022/12/17 18:57:09;;;;;;;54.70;37.53;;;-3.70;99.90;;;;;;4993429;28;20474;-77
2022/12/17 18:59:39;;;;;;;62.13;42.00;;;-3.80;99.90;;;;;;4995406;28;20441;-77
2022/12/17 19:02:11;;;;;;;55.43;39.40;;;-3.80;99.90;;;;;;4994705;28;20946;-76
2022/12/17 19:04:41;;;;;;;55.30;38.90;;;-3.80;99.90;;;;;;4995141;28;20477;-76
2022/12/17 19:07:10;;;;;;;50.63;36.60;;;-3.90;99.90;;;;;;4993356;28;20458;-76
2022/12/17 19:09:41;;;;;;;55.43;39.27;;;-3.90;99.90;;;;;;4994504;28;20453;-76
2022/12/17 19:12:10;;;;;;;48.93;37.90;;;-3.90;99.90;;;;;;4993530;28;20802;-77
2022/12/17 19:14:38;;;;;;;46.10;33.67;;;-3.90;99.90;;;;;;4994977;28;20464;-77
2022/12/17 19:17:09;;;;;;;47.53;36.83;;;-3.90;99.90;;;;;;4995900;28;20914;-77
2022/12/17 19:19:37;;;;;;;53.50;38.30;;;-4.00;99.90;;;;;;4994196;28;20449;-77
2022/12/17 19:22:07;;;;;;;48.10;36.27;;;-4.00;99.90;;;;;;4994128;28;20485;-77
2022/12/17 19:24:35;;;;;;;51.60;37.77;;;-4.00;99.90;;;;;;4992644;28;20489;-76
2022/12/17 19:27:03;;;;;;;48.33;37.13;;;-4.00;99.90;;;;;;4993201;28;20459;-76
2022/12/17 19:29:32;;;;;;;47.10;34.00;;;-4.00;99.90;;;;;;4993242;28;20654;-77
2022/12/17 19:32:00;;;;;;;46.73;34.90;;;-4.10;99.90;;;;;;4994663;28;20521;-76
2022/12/17 19:34:28;;;;;;;51.07;36.67;;;-4.10;99.90;;;;;;4993053;28;20575;-76
2022/12/17 19:37:03;;;;;;;52.93;37.20;;;-4.10;99.90;;;;;;4995898;28;20449;-78
2022/12/17 19:39:47;;;;;;;52.53;36.83;;;-4.10;99.90;;;;;;4993881;28;20450;-76
2022/12/17 19:42:26;;;;;;;50.10;35.83;;;-4.20;99.90;;;;;;4993322;28;20441;-76
2022/12/17 19:45:12;;;;;;;52.67;35.77;;;-4.20;99.90;;;;;;4992625;28;20567;-77
2022/12/17 19:47:54;;;;;;;49.30;37.20;;;-4.20;99.90;;;;;;4993906;28;20437;-77
2022/12/17 19:50:23;;;;;;;47.80;35.43;;;-4.20;99.90;;;;;;4993678;28;20488;-77
2022/12/17 19:52:51;;;;;;;51.73;37.43;;;-4.20;99.90;;;;;;4992559;28;20456;-76
2022/12/17 19:55:38;;;;;;;53.73;36.27;;;-4.30;99.90;;;;;;4992601;28;20878;-77
2022/12/17 19:58:15;;;;;;;69.83;43.30;;;-4.30;99.90;;;;;;4992754;28;21117;-77
2022/12/17 20:00:43;;;;;;;53.70;38.73;;;-4.30;99.90;;;;;;4995934;28;20452;-77
2022/12/17 20:03:24;;;;;;;55.90;41.83;;;-4.30;99.90;;;;;;4997153;28;20444;-76
2022/12/17 20:06:06;;;;;;;54.57;38.50;;;-4.30;99.90;;;;;;4995905;28;20504;-77
2022/12/17 20:08:37;;;;;;;49.07;36.00;;;-4.40;99.90;;;;;;4996089;28;20451;-77
2022/12/17 20:14:08;;;;;;;47.57;32.03;;;-4.40;99.90;;;;;;4995555;28;20499;-77
2022/12/17 20:16:43;;;;;;;54.87;34.70;;;-4.40;99.90;;;;;;4994953;28;20515;-77
2022/12/17 20:19:19;;;;;;;43.77;32.80;;;-4.50;99.90;;;;;;4997466;28;20456;-77
2022/12/17 20:21:48;;;;;;;51.90;35.00;;;-4.50;99.90;;;;;;4995904;28;20460;-77
2022/12/17 20:24:23;;;;;;;47.50;36.53;;;-4.50;99.90;;;;;;4995933;28;21063;-76
2022/12/17 20:27:05;;;;;;;49.23;33.93;;;-4.50;99.90;;;;;;4995649;28;20511;-76
2022/12/17 20:29:40;;;;;;;55.50;36.73;;;-4.50;99.90;;;;;;4995927;28;20436;-77
2022/12/17 20:32:20;;;;;;;53.30;35.73;;;-4.60;99.90;;;;;;4995544;28;20556;-77
2022/12/17 20:34:49;;;;;;;52.53;35.63;;;-4.60;99.90;;;;;;4995281;28;20490;-77
2022/12/17 20:37:22;;;;;;;48.27;33.87;;;-4.60;99.90;;;;;;4996000;28;20474;-77
2022/12/17 20:40:05;;;;;;;47.67;33.37;;;-4.60;99.90;;;;;;4994687;28;20475;-77
2022/12/17 20:42:51;;;;;;;56.53;39.13;;;-4.60;99.90;;;;;;4995630;28;20456;-77
2022/12/17 20:45:32;;;;;;;58.20;42.13;;;-4.60;99.90;;;;;;4996090;28;21084;-77
2022/12/17 20:48:10;;;;;;;57.03;41.00;;;-4.60;99.90;;;;;;4997797;28;20455;-78
2022/12/17 20:50:55;;;;;;;54.80;38.93;;;-4.60;99.90;;;;;;4999113;28;20822;-77
2022/12/17 20:53:39;;;;;;;54.43;37.37;;;-4.60;99.90;;;;;;4995457;28;20456;-76
2022/12/17 20:56:16;;;;;;;53.97;36.83;;;-4.70;99.90;;;;;;4995461;28;20480;-76
2022/12/17 20:58:52;;;;;;;58.73;36.67;;;-4.70;99.90;;;;;;4997875;28;20439;-77
2022/12/17 21:01:27;;;;;;;55.53;34.97;;;-4.70;99.90;;;;;;4997221;28;20451;-77
2022/12/17 21:03:57;;;;;;;49.90;35.90;;;-4.70;99.90;;;;;;4996747;28;20444;-77
2022/12/17 21:06:36;;;;;;;56.77;38.73;;;-4.70;99.90;;;;;;4997318;28;20829;-78
2022/12/17 21:09:17;;;;;;;52.47;36.53;;;-4.70;99.90;;;;;;4996169;28;20863;-78
2022/12/17 21:11:45;;;;;;;46.73;34.43;;;-4.70;99.90;;;;;;4997634;28;20457;-77
2022/12/17 21:14:18;;;;;;;49.90;34.97;;;-4.80;99.90;;;;;;4995718;28;20552;-77
2022/12/17 21:16:48;;;;;;;48.10;36.40;;;-4.80;99.90;;;;;;4994901;28;20857;-77
2022/12/17 21:19:19;;;;;;;58.13;40.33;;;-4.80;99.90;;;;;;4994775;28;20456;-77
2022/12/17 21:21:49;;;;;;;51.37;36.63;;;-4.80;99.90;;;;;;4994836;28;20437;-77
2022/12/17 21:24:22;;;;;;;58.13;38.70;;;-4.80;99.90;;;;;;5000485;28;20906;-77
2022/12/17 21:26:52;;;;;;;55.33;38.67;;;-4.90;99.90;;;;;;4994725;28;20580;-77
2022/12/17 21:29:24;;;;;;;49.43;34.43;;;-4.40;99.90;;;;;;4994079;28;20504;-76
2022/12/17 21:31:55;;;;;;;50.47;34.43;;;-4.90;99.90;;;;;;4995051;28;20497;-77
2022/12/17 21:34:28;;;;;;;53.50;34.93;;;-4.40;99.90;;;;;;4994312;28;20520;-77
2022/12/17 21:37:05;;;;;;;55.63;36.47;;;-4.90;99.90;;;;;;4995041;28;20465;-77
2022/12/17 21:39:50;;;;;;;61.33;39.57;;;-4.90;99.90;;;;;;4995096;28;20783;-77
2022/12/17 21:45:29;;;;;;;51.97;35.97;;;-4.90;99.90;;;;;;4998253;28;20467;-78
2022/12/17 21:47:57;;;;;;;58.50;38.10;;;-4.90;99.90;;;;;;4994339;28;20449;-76
2022/12/17 21:50:26;;;;;;;52.40;35.73;;;-5.00;99.90;;;;;;4994184;28;20449;-77
2022/12/17 21:53:01;;;;;;;49.93;34.53;;;-5.00;99.90;;;;;;4994250;28;20472;-77
2022/12/17 21:55:35;;;;;;;46.60;32.97;;;-5.00;99.90;;;;;;4993964;28;20505;-77
2022/12/17 21:58:09;;;;;;;44.63;31.87;;;-5.00;99.90;;;;;;4994550;28;20485;-77
2022/12/17 22:00:52;;;;;;;57.13;34.27;;;-5.00;99.90;;;;;;4994407;28;20445;-77
2022/12/17 22:03:32;;;;;;;49.50;32.63;;;-5.00;99.90;;;;;;4995086;28;20445;-77
2022/12/17 22:06:09;;;;;;;51.67;34.77;;;-5.00;99.90;;;;;;4994822;28;20982;-76
2022/12/17 22:08:43;;;;;;;55.60;34.10;;;-5.10;99.90;;;;;;4995765;28;20443;-77
2022/12/17 22:11:13;;;;;;;52.73;34.70;;;-5.10;99.90;;;;;;4995435;28;20492;-76
2022/12/17 22:14:10;;;;;;;47.60;33.50;;;-5.10;99.90;;;;;;4993806;28;20515;-77
2022/12/17 22:16:50;;;;;;;49.63;31.90;;;-5.10;99.90;;;;;;4994189;28;20539;-76
2022/12/17 22:19:21;;;;;;;47.87;32.67;;;-5.10;99.90;;;;;;4992898;28;20452;-77
2022/12/17 22:22:00;;;;;;;55.63;33.50;;;-5.10;99.90;;;;;;4996921;28;20468;-78
2022/12/17 22:24:31;;;;;;;46.33;33.27;;;-5.10;99.90;;;;;;4996706;28;20465;-77
2022/12/17 22:27:04;;;;;;;52.53;36.60;;;-5.20;99.90;;;;;;4995041;28;20850;-78
2022/12/17 22:35:10;;;;;;;52.40;33.40;;;-5.20;99.90;;;;;;4995134;28;20511;-78
2022/12/17 22:37:59;;;;;;;49.90;34.00;;;-5.20;99.90;;;;;;4995096;28;20471;-77
2022/12/17 22:40:47;;;;;;;48.00;32.00;;;-5.20;99.90;;;;;;4995352;28;20436;-77
2022/12/17 22:43:34;;;;;;;46.10;32.20;;;-5.20;99.90;;;;;;4995276;28;20910;-77
2022/12/17 22:46:22;;;;;;;49.67;31.03;;;-5.20;99.90;;;;;;4993693;28;20445;-77
2022/12/17 22:48:52;;;;;;;42.23;30.80;;;-5.30;99.90;;;;;;4993625;28;21013;-77
2022/12/17 22:51:20;;;;;;;48.37;34.20;;;-5.30;99.90;;;;;;4995294;28;20470;-77
2022/12/17 22:54:01;;;;;;;48.50;32.80;;;-5.30;99.90;;;;;;4995538;28;20520;-78
2022/12/17 22:56:30;;;;;;;47.97;34.30;;;-5.30;99.90;;;;;;4995419;28;20433;-77
2022/12/17 22:59:19;;;;;;;57.10;34.73;;;-5.30;99.90;;;;;;4996375;28;20449;-78
2022/12/17 23:01:47;;;;;;;49.00;34.50;;;-5.30;99.90;;;;;;4997324;28;20479;-77
2022/12/17 23:04:17;;;;;;;44.93;33.03;;;-5.30;99.90;;;;;;4998065;28;20504;-77
2022/12/17 23:06:46;;;;;;;50.20;34.30;;;-5.30;99.90;;;;;;5000639;28;20447;-78
2022/12/17 23:09:17;;;;;;;50.77;34.23;;;-5.40;99.90;;;;;;5003336;28;20496;-78
2022/12/17 23:11:47;;;;;;;47.70;33.70;;;-5.40;99.90;;;;;;5000850;28;20455;-77
2022/12/17 23:14:15;;;;;;;41.53;31.87;;;-5.40;99.90;;;;;;5001338;28;20465;-77
2022/12/17 23:16:43;;;;;;;48.73;32.07;;;-5.40;99.90;;;;;;5000972;28;20984;-77
2022/12/17 23:19:12;;;;;;;44.73;32.20;;;-5.40;99.90;;;;;;5001501;28;20445;-77
2022/12/17 23:21:42;;;;;;;46.30;31.50;;;-5.40;99.90;;;;;;4999747;28;20953;-77
2022/12/17 23:24:10;;;;;;;47.17;31.70;;;-5.40;99.90;;;;;;4996328;28;20465;-77
2022/12/17 23:26:39;;;;;;;48.83;33.63;;;-5.40;99.90;;;;;;4996795;28;20452;-77
2022/12/17 23:29:13;;;;;;;49.87;33.07;;;-5.40;99.90;;;;;;4995404;28;20460;-77
2022/12/17 23:31:47;;;;;;;44.87;33.80;;;-5.40;99.90;;;;;;4995083;28;20518;-77
2022/12/17 23:34:15;;;;;;;45.10;33.70;;;-5.50;99.90;;;;;;4997273;28;20519;-77
2022/12/17 23:36:45;;;;;;;44.63;32.77;;;-5.50;99.90;;;;;;4998325;28;20549;-77
2022/12/17 23:39:13;;;;;;;33.37;24.67;;;-5.50;99.90;;;;;;4997246;28;20455;-77
2022/12/17 23:41:41;;;;;;;43.27;32.93;;;-5.50;99.90;;;;;;4996807;28;20459;-77
2022/12/17 23:44:09;;;;;;;42.33;32.47;;;-5.50;99.90;;;;;;4998201;28;20468;-77
2022/12/17 23:46:37;;;;;;;50.60;32.63;;;-5.50;99.90;;;;;;4997687;28;20455;-77
2022/12/17 23:49:06;;;;;;;42.83;31.63;;;-5.50;99.90;;;;;;4996555;28;20480;-77
2022/12/17 23:51:34;;;;;;;44.10;31.53;;;-5.50;99.90;;;;;;4996444;28;20833;-77
2022/12/17 23:54:04;;;;;;;49.33;32.43;;;-5.50;99.90;;;;;;4996116;28;20468;-77
2022/12/17 23:56:32;;;;;;;43.97;32.07;;;-5.50;99.90;;;;;;4996151;28;20476;-77
2022/12/17 23:59:01;;;;;;;52.50;34.53;;;-5.50;99.90;;;;;;4992849;28;20463;-77
